Time;durP1;ratioP1;P1;durP2;ratioP2;P2;SDS_P1;SDS_P2;PMS_P1;PMS_P2;Temp;Humidity;BMP_temperature;BMP_pressure;BME280_temperature;BME280_humidity;BME280_pressure;Samples;Min_cycle;Max_cycle;Signal;HPM_P1;HPM_P2
2023/05/16 00:01:58;;;;;;;4.10;3.70;;;11.30;99.90;;;;;;5044344;28;20666;-91
2023/05/16 00:04:26;;;;;;;5.45;4.35;;;11.20;99.90;;;;;;5051794;28;20265;-90
2023/05/16 00:06:56;;;;;;;4.20;3.80;;;11.20;99.90;;;;;;5046011;28;20596;-90
2023/05/16 00:09:23;;;;;;;5.13;4.63;;;11.20;99.90;;;;;;5053873;28;20640;-91
2023/05/16 00:11:50;;;;;;;4.22;3.70;;;11.20;99.90;;;;;;5041484;28;20225;-91
2023/05/16 00:14:18;;;;;;;5.57;4.43;;;11.30;99.90;;;;;;5048049;28;20236;-90
2023/05/16 00:16:46;;;;;;;4.25;3.83;;;11.40;99.90;;;;;;5051634;28;20210;-90
2023/05/16 00:19:14;;;;;;;5.50;4.47;;;11.40;99.90;;;;;;5051312;28;20225;-90
2023/05/16 00:21:41;;;;;;;5.90;4.68;;;11.40;99.90;;;;;;5053854;28;20265;-90
2023/05/16 00:24:08;;;;;;;6.05;4.25;;;11.50;99.90;;;;;;5050399;28;20232;-90
2023/05/16 00:26:35;;;;;;;4.75;4.25;;;11.50;99.90;;;;;;5045277;28;20226;-90
2023/05/16 00:29:03;;;;;;;4.30;3.90;;;11.50;99.90;;;;;;5049379;28;20202;-91
2023/05/16 00:31:30;;;;;;;4.30;3.80;;;11.50;99.90;;;;;;5043902;28;20208;-90
2023/05/16 00:33:58;;;;;;;4.22;3.90;;;11.50;99.90;;;;;;5049775;28;20209;-91
2023/05/16 00:36:25;;;;;;;4.60;4.20;;;11.50;99.90;;;;;;5054494;28;20209;-91
2023/05/16 00:38:52;;;;;;;6.80;3.92;;;11.50;99.90;;;;;;5043755;28;20209;-91
2023/05/16 00:41:19;;;;;;;6.60;4.70;;;11.40;99.90;;;;;;5046192;28;20546;-91
2023/05/16 00:43:46;;;;;;;3.80;3.50;;;11.40;99.90;;;;;;5048749;28;20198;-91
2023/05/16 00:46:14;;;;;;;3.80;3.42;;;11.40;99.90;;;;;;5050893;28;20685;-90
2023/05/16 00:48:41;;;;;;;4.60;3.58;;;11.20;99.90;;;;;;5043508;28;20212;-90
2023/05/16 00:51:10;;;;;;;4.03;3.63;;;11.10;99.90;;;;;;5050975;28;20205;-90
2023/05/16 00:53:37;;;;;;;4.82;4.32;;;11.10;99.90;;;;;;5043817;28;20627;-90
2023/05/16 00:56:07;;;;;;;4.60;4.20;;;11.20;99.90;;;;;;5037899;28;20198;-90
2023/05/16 00:58:34;;;;;;;4.22;3.80;;;11.20;99.90;;;;;;5043380;28;20205;-90
2023/05/16 01:01:03;;;;;;;5.93;3.60;;;11.20;99.90;;;;;;5046051;28;20202;-90
2023/05/16 01:03:31;;;;;;;4.95;3.75;;;11.10;99.90;;;;;;5039206;28;20199;-90
2023/05/16 01:05:59;;;;;;;4.18;3.78;;;11.10;99.90;;;;;;5048491;28;20214;-91
2023/05/16 01:08:27;;;;;;;4.20;3.80;;;11.00;99.90;;;;;;5039703;28;20263;-89
2023/05/16 01:11:02;;;;;;;6.60;4.22;;;11.00;99.90;;;;;;5055371;28;20582;-91
2023/05/16 01:13:39;;;;;;;4.13;3.65;;;11.00;99.90;;;;;;5054132;28;20205;-89
2023/05/16 01:16:13;;;;;;;6.82;4.25;;;10.90;99.90;;;;;;5057098;28;20608;-91
2023/05/16 01:18:49;;;;;;;4.57;4.03;;;10.90;99.90;;;;;;5049502;28;20601;-91
2023/05/16 01:21:24;;;;;;;4.80;4.20;;;10.90;99.90;;;;;;5050278;28;20296;-91
2023/05/16 01:24:00;;;;;;;5.90;4.35;;;10.90;99.90;;;;;;5042847;28;20271;-90
2023/05/16 01:26:38;;;;;;;7.85;4.50;;;10.90;99.90;;;;;;5046495;28;20313;-90
2023/05/16 01:29:06;;;;;;;4.80;4.25;;;10.80;99.90;;;;;;5055252;28;20225;-90
2023/05/16 01:31:34;;;;;;;4.65;4.25;;;11.00;99.90;;;;;;5052635;28;20277;-90
2023/05/16 01:34:01;;;;;;;4.28;3.88;;;11.00;99.90;;;;;;5054945;28;20194;-91
2023/05/16 01:36:35;;;;;;;4.85;4.22;;;11.00;99.90;;;;;;5051721;28;20230;-89
2023/05/16 01:39:07;;;;;;;4.63;4.10;;;10.90;99.90;;;;;;5047542;28;20301;-91
2023/05/16 01:41:59;;;;;;;4.78;4.15;;;10.90;99.90;;;;;;5049808;28;20657;-90
2023/05/16 01:44:41;;;;;;;4.63;4.13;;;10.90;99.90;;;;;;5049721;28;20198;-90
2023/05/16 01:47:25;;;;;;;5.65;4.60;;;10.90;99.90;;;;;;5058065;28;20229;-90
2023/05/16 01:50:01;;;;;;;4.70;4.15;;;11.00;99.90;;;;;;5046586;28;20197;-90
2023/05/16 01:52:35;;;;;;;4.60;4.20;;;11.00;99.90;;;;;;5053153;28;20284;-90
2023/05/16 01:55:05;;;;;;;4.65;4.20;;;11.00;99.90;;;;;;5055008;28;20585;-90
2023/05/16 01:57:34;;;;;;;4.90;4.50;;;11.00;99.90;;;;;;5053074;28;20234;-90
2023/05/16 02:00:01;;;;;;;4.70;4.30;;;11.00;99.90;;;;;;5054171;28;20221;-91
2023/05/16 02:02:28;;;;;;;4.80;4.40;;;11.10;99.90;;;;;;5051290;28;20292;-90
2023/05/16 02:04:55;;;;;;;4.82;4.25;;;11.00;99.90;;;;;;5053834;28;20204;-91
2023/05/16 02:07:23;;;;;;;6.18;4.63;;;11.00;99.90;;;;;;5050186;28;20293;-90
2023/05/16 02:09:50;;;;;;;7.70;4.22;;;11.00;99.90;;;;;;5048384;28;20190;-91
2023/05/16 02:12:17;;;;;;;5.43;4.30;;;11.00;99.90;;;;;;5061376;28;20548;-91
2023/05/16 02:14:46;;;;;;;4.93;4.20;;;11.00;99.90;;;;;;5049325;28;20632;-90
2023/05/16 02:17:13;;;;;;;5.00;4.50;;;10.90;99.90;;;;;;5047464;28;20198;-91
2023/05/16 02:19:40;;;;;;;5.82;4.15;;;10.80;99.90;;;;;;5060710;28;20204;-90
2023/05/16 02:22:08;;;;;;;5.53;4.60;;;10.90;99.90;;;;;;5055032;28;20193;-89
2023/05/16 02:24:36;;;;;;;5.15;4.18;;;11.00;99.90;;;;;;5054319;28;20262;-91
2023/05/16 02:27:04;;;;;;;4.80;4.40;;;10.90;99.90;;;;;;5051170;28;20222;-91
2023/05/16 02:29:30;;;;;;;5.72;4.35;;;11.00;99.90;;;;;;5048448;28;20207;-90
2023/05/16 02:31:59;;;;;;;6.28;4.97;;;11.00;99.90;;;;;;5054603;28;20198;-90
2023/05/16 02:34:26;;;;;;;5.25;4.22;;;11.00;99.90;;;;;;5045352;28;20252;-90
2023/05/16 02:36:53;;;;;;;5.53;5.00;;;10.90;99.90;;;;;;5051923;28;20213;-90
2023/05/16 02:39:20;;;;;;;6.18;4.80;;;10.90;99.90;;;;;;5051573;28;20686;-90
2023/05/16 02:41:47;;;;;;;5.25;4.57;;;10.90;99.90;;;;;;5056560;28;20204;-90
2023/05/16 02:44:14;;;;;;;5.30;4.80;;;11.00;99.90;;;;;;5055076;28;20689;-90
2023/05/16 02:46:41;;;;;;;8.50;5.20;;;11.10;99.90;;;;;;5048322;28;20226;-90
2023/05/16 02:49:09;;;;;;;5.35;4.55;;;11.00;99.90;;;;;;5052012;28;20205;-90
2023/05/16 02:51:39;;;;;;;4.75;4.30;;;11.10;99.90;;;;;;5046313;28;20202;-90
2023/05/16 02:54:08;;;;;;;5.63;5.13;;;11.00;99.90;;;;;;5051249;28;20213;-90
2023/05/16 02:56:36;;;;;;;6.22;4.80;;;10.90;99.90;;;;;;5050675;28;20198;-90
2023/05/16 02:59:03;;;;;;;5.38;4.80;;;10.80;99.90;;;;;;5061913;28;20202;-91
2023/05/16 03:01:30;;;;;;;5.72;5.22;;;10.70;99.90;;;;;;5054189;28;20220;-91
2023/05/16 03:03:58;;;;;;;5.40;4.90;;;10.90;99.90;;;;;;5052146;28;20672;-90
2023/05/16 03:06:26;;;;;;;6.07;5.32;;;10.90;99.90;;;;;;5051758;28;20225;-90
2023/05/16 03:08:54;;;;;;;5.80;5.20;;;10.80;99.90;;;;;;5042305;28;20198;-90
2023/05/16 03:11:23;;;;;;;5.88;5.28;;;10.80;99.90;;;;;;5045534;28;21005;-88
2023/05/16 03:13:51;;;;;;;7.63;5.47;;;10.70;99.90;;;;;;5053197;28;20646;-91
2023/05/16 03:16:18;;;;;;;6.63;5.57;;;10.80;99.90;;;;;;5053612;28;20201;-91
2023/05/16 03:18:45;;;;;;;6.38;5.72;;;10.70;99.90;;;;;;5052585;28;20310;-90
2023/05/16 03:21:12;;;;;;;6.65;5.38;;;10.80;99.90;;;;;;5048390;28;20201;-90
2023/05/16 03:23:40;;;;;;;5.90;5.32;;;10.80;99.90;;;;;;5053306;28;20201;-91
2023/05/16 03:26:07;;;;;;;6.40;5.53;;;10.80;99.90;;;;;;5049684;28;20218;-90
2023/05/16 03:28:35;;;;;;;6.38;5.78;;;10.80;99.90;;;;;;5051103;28;20685;-90
2023/05/16 03:31:02;;;;;;;6.63;6.03;;;10.80;99.90;;;;;;5052854;28;20209;-90
2023/05/16 03:33:29;;;;;;;7.10;6.00;;;10.80;99.90;;;;;;5049308;28;20194;-88
2023/05/16 03:35:56;;;;;;;8.30;6.00;;;10.90;99.90;;;;;;5047261;28;20274;-90
2023/05/16 03:38:24;;;;;;;6.15;5.57;;;10.80;99.90;;;;;;5050829;28;20206;-91
2023/05/16 03:40:52;;;;;;;6.30;5.78;;;10.80;99.90;;;;;;5038753;28;20221;-90
2023/05/16 03:43:19;;;;;;;6.40;5.80;;;10.80;99.90;;;;;;5054448;28;20679;-91
2023/05/16 03:45:46;;;;;;;7.28;5.82;;;10.80;99.90;;;;;;5049964;28;20289;-90
2023/05/16 03:48:14;;;;;;;7.05;5.88;;;10.70;99.90;;;;;;5053068;28;20198;-90
2023/05/16 03:50:41;;;;;;;6.60;6.00;;;10.90;99.90;;;;;;5050517;28;20234;-88
2023/05/16 03:53:09;;;;;;;6.85;6.22;;;10.90;99.90;;;;;;5047568;28;20288;-90
2023/05/16 03:55:36;;;;;;;8.15;6.13;;;10.90;99.90;;;;;;5048085;28;20209;-90
2023/05/16 03:58:05;;;;;;;8.25;6.10;;;11.00;99.90;;;;;;5051124;28;20213;-91
2023/05/16 04:00:33;;;;;;;6.88;6.18;;;11.00;99.90;;;;;;5057134;28;20280;-90
2023/05/16 04:03:00;;;;;;;7.20;6.50;;;11.10;99.90;;;;;;5051070;28;20228;-89
2023/05/16 04:05:28;;;;;;;7.53;6.40;;;11.10;99.90;;;;;;5059272;28;20661;-90
2023/05/16 04:07:55;;;;;;;7.35;6.63;;;11.20;99.90;;;;;;5046646;28;20679;-91
2023/05/16 04:10:22;;;;;;;7.07;6.38;;;11.30;99.90;;;;;;5051728;28;20209;-91
2023/05/16 04:12:50;;;;;;;8.07;6.72;;;11.20;99.90;;;;;;5042492;28;20255;-90
2023/05/16 04:15:19;;;;;;;7.35;6.10;;;11.20;99.90;;;;;;5051782;28;20263;-91
2023/05/16 04:17:45;;;;;;;6.82;6.13;;;11.30;99.90;;;;;;5045858;28;20225;-91
2023/05/16 04:20:13;;;;;;;10.98;5.85;;;11.40;99.90;;;;;;5047363;28;20559;-90
2023/05/16 04:22:40;;;;;;;7.40;6.70;;;11.20;99.90;;;;;;5048552;28;20204;-90
2023/05/16 04:25:08;;;;;;;7.53;6.75;;;11.10;99.90;;;;;;5051641;28;20204;-92
2023/05/16 04:27:35;;;;;;;7.07;6.32;;;11.00;99.90;;;;;;5054217;28;20226;-92
2023/05/16 04:30:03;;;;;;;6.78;6.07;;;10.90;99.90;;;;;;5054067;28;20202;-92
2023/05/16 04:32:34;;;;;;;10.68;6.70;;;10.80;99.90;;;;;;5053861;28;20653;-92
2023/05/16 04:35:01;;;;;;;7.65;6.68;;;10.90;99.90;;;;;;5067995;28;20677;-90
2023/05/16 04:37:30;;;;;;;8.10;6.72;;;10.90;99.90;;;;;;5061052;28;20198;-88
2023/05/16 04:39:57;;;;;;;8.95;7.72;;;11.10;99.90;;;;;;5052573;28;20216;-91
2023/05/16 04:42:24;;;;;;;9.23;7.35;;;11.20;99.90;;;;;;5053189;28;20687;-91
2023/05/16 04:44:52;;;;;;;9.30;6.85;;;11.10;99.90;;;;;;5044153;28;20201;-90
2023/05/16 04:47:19;;;;;;;9.40;7.28;;;11.00;99.90;;;;;;5048706;28;20226;-92
2023/05/16 04:49:50;;;;;;;9.30;6.78;;;11.10;99.90;;;;;;5045558;28;20206;-90
2023/05/16 04:52:17;;;;;;;7.93;7.13;;;11.10;99.90;;;;;;5052566;28;20193;-89
2023/05/16 04:54:45;;;;;;;8.77;7.50;;;11.10;99.90;;;;;;5048217;28;20198;-89
2023/05/16 04:57:12;;;;;;;8.38;6.97;;;11.10;99.90;;;;;;5048281;28;20217;-88
2023/05/16 04:59:39;;;;;;;8.95;7.50;;;11.10;99.90;;;;;;5049658;28;20263;-88
2023/05/16 05:02:06;;;;;;;8.18;7.30;;;11.10;99.90;;;;;;5045209;28;20638;-89
2023/05/16 05:04:33;;;;;;;8.45;7.43;;;11.10;99.90;;;;;;5054685;28;20205;-89
2023/05/16 05:07:01;;;;;;;10.93;7.40;;;11.10;99.90;;;;;;5053485;28;20214;-88
2023/05/16 05:09:29;;;;;;;9.80;8.20;;;11.10;99.90;;;;;;5051598;28;20210;-87
2023/05/16 05:11:56;;;;;;;9.13;8.20;;;11.20;99.90;;;;;;5047062;28;20190;-88
2023/05/16 05:14:23;;;;;;;8.90;7.95;;;11.10;99.90;;;;;;5051326;28;20682;-87
2023/05/16 05:16:50;;;;;;;9.55;8.60;;;11.10;99.90;;;;;;5041035;28;20675;-87
2023/05/16 05:19:20;;;;;;;9.77;7.85;;;11.10;99.90;;;;;;5033367;28;20221;-84
2023/05/16 05:21:47;;;;;;;10.05;7.57;;;11.10;99.90;;;;;;5058098;28;20209;-85
2023/05/16 05:24:15;;;;;;;8.82;7.90;;;11.20;99.90;;;;;;5049376;28;20206;-84
2023/05/16 05:26:43;;;;;;;9.00;7.70;;;11.20;99.90;;;;;;5050968;28;20232;-86
2023/05/16 05:29:10;;;;;;;9.95;7.78;;;11.20;99.90;;;;;;5046651;28;20242;-86
2023/05/16 05:31:37;;;;;;;9.45;7.95;;;11.20;99.90;;;;;;5056262;28;20204;-84
2023/05/16 05:34:04;;;;;;;12.32;8.13;;;11.10;99.90;;;;;;5036734;28;20562;-88
2023/05/16 05:36:32;;;;;;;11.13;8.23;;;11.20;99.90;;;;;;5050589;28;20202;-86
2023/05/16 05:39:00;;;;;;;9.13;8.05;;;11.20;99.90;;;;;;5051934;28;20647;-88
2023/05/16 05:44:10;;;;;;;10.13;9.02;;;11.20;99.90;;;;;;5050557;28;20194;-84
2023/05/16 05:46:38;;;;;;;12.15;9.18;;;11.30;99.60;;;;;;5067124;28;20214;-87
2023/05/16 05:49:05;;;;;;;10.10;9.02;;;11.30;99.90;;;;;;5049029;28;20190;-86
2023/05/16 05:51:34;;;;;;;11.98;9.27;;;11.40;99.90;;;;;;5055886;28;20544;-89
2023/05/16 05:54:05;;;;;;;12.18;9.23;;;11.40;99.40;;;;;;5048271;28;20618;-89
2023/05/16 05:56:34;;;;;;;11.38;8.80;;;11.70;99.60;;;;;;5053330;28;20289;-90
2023/05/16 05:59:01;;;;;;;10.80;9.13;;;11.70;99.10;;;;;;5052412;28;20204;-89
2023/05/16 06:01:29;;;;;;;13.10;8.88;;;11.90;98.60;;;;;;5052538;28;20202;-90
2023/05/16 06:03:56;;;;;;;11.32;8.88;;;11.90;98.40;;;;;;5035007;28;20196;-88
2023/05/16 06:06:23;;;;;;;9.43;8.43;;;12.10;98.20;;;;;;5052300;28;20221;-87
2023/05/16 06:08:50;;;;;;;12.68;9.07;;;12.20;97.80;;;;;;5055072;28;20526;-87
2023/05/16 06:11:18;;;;;;;10.40;9.30;;;12.20;97.50;;;;;;5048329;28;20199;-87
2023/05/16 06:13:47;;;;;;;13.77;9.27;;;12.30;97.10;;;;;;5034929;28;20643;-89
2023/05/16 06:16:19;;;;;;;12.02;8.77;;;12.20;97.10;;;;;;5055854;28;20280;-88
2023/05/16 06:18:47;;;;;;;11.10;9.07;;;12.30;96.90;;;;;;5057277;28;20218;-86
2023/05/16 06:21:14;;;;;;;12.88;8.60;;;12.20;97.00;;;;;;5051513;28;20229;-88
2023/05/16 06:23:42;;;;;;;9.98;8.95;;;12.20;97.10;;;;;;5048970;28;20206;-86
2023/05/16 06:26:10;;;;;;;11.35;9.07;;;12.30;96.70;;;;;;5051401;28;20597;-86
2023/05/16 06:28:40;;;;;;;11.68;8.75;;;12.20;96.90;;;;;;5042510;28;20226;-89
2023/05/16 06:31:20;;;;;;;13.05;8.77;;;12.20;96.60;;;;;;5048601;28;20293;-86
2023/05/16 06:33:48;;;;;;;11.07;9.40;;;12.30;97.20;;;;;;5039062;28;20255;-87
2023/05/16 07:24:39;;;;;;;18.33;10.18;;;13.00;94.50;;;;;;4978279;28;20216;-87
2023/05/16 07:27:17;;;;;;;40.45;32.00;;;12.80;95.00;;;;;;4982111;28;20228;-85
2023/05/16 07:29:56;;;;;;;11.57;10.38;;;12.60;96.30;;;;;;4973779;28;20204;-88
2023/05/16 07:32:26;;;;;;;15.90;10.00;;;12.50;96.30;;;;;;4911996;29;20226;-89
2023/05/16 07:34:54;;;;;;;12.68;9.80;;;12.50;95.90;;;;;;4982254;28;20287;-88
2023/05/16 07:37:20;;;;;;;12.15;10.43;;;12.30;96.30;;;;;;5031066;28;20205;-89
2023/05/16 07:39:50;;;;;;;13.65;10.57;;;12.10;97.10;;;;;;5056605;28;20284;-88
2023/05/16 07:42:17;;;;;;;13.57;10.85;;;12.10;97.40;;;;;;5082352;28;20196;-89
2023/05/16 07:44:45;;;;;;;14.18;10.13;;;12.00;97.60;;;;;;5046951;28;20202;-86
2023/05/16 07:47:12;;;;;;;11.77;10.25;;;12.10;97.90;;;;;;5078655;28;20311;-87
2023/05/16 07:49:38;;;;;;;12.90;10.60;;;11.90;97.90;;;;;;5054012;28;20646;-88
2023/05/16 07:52:07;;;;;;;13.52;10.88;;;12.10;98.60;;;;;;5064827;28;20276;-88
2023/05/16 07:54:36;;;;;;;13.13;10.13;;;12.10;98.80;;;;;;5068997;28;20251;-87
2023/05/16 07:57:14;;;;;;;11.95;10.52;;;12.20;98.40;;;;;;5043679;28;20224;-86
2023/05/16 07:59:41;;;;;;;13.20;10.32;;;12.20;98.90;;;;;;5059156;28;20220;-87
2023/05/16 08:02:10;;;;;;;13.48;10.32;;;12.30;98.50;;;;;;5070118;28;20335;-88
2023/05/16 08:04:37;;;;;;;13.32;10.80;;;12.30;98.20;;;;;;5073274;28;20201;-87
2023/05/16 08:07:08;;;;;;;11.88;10.55;;;12.10;98.80;;;;;;5061702;28;20222;-89
2023/05/16 08:09:35;;;;;;;12.85;10.57;;;12.00;99.10;;;;;;5074415;28;20194;-86
2023/05/16 08:12:08;;;;;;;12.10;10.90;;;11.90;99.00;;;;;;5063110;28;20598;-86
2023/05/16 08:14:36;;;;;;;15.20;11.23;;;11.80;99.60;;;;;;5063686;28;20625;-86
2023/05/16 08:19:48;;;;;;;11.80;10.60;;;11.80;99.90;;;;;;5045595;28;20217;-87
2023/05/16 08:25:00;;;;;;;15.25;11.68;;;12.10;99.50;;;;;;5066716;28;20229;-87
2023/05/16 09:02:14;;;;;;;11.48;10.27;;;13.60;95.20;;;;;;4927213;29;20289;-88
2023/05/16 09:29:58;;;;;;;21.10;18.30;;;14.50;94.30;;;;;;5070626;28;20617;-88
2023/05/16 09:32:28;;;;;;;11.57;10.13;;;15.10;92.50;;;;;;5084036;28;20201;-89
2023/05/16 09:35:01;;;;;;;11.80;9.35;;;15.60;91.60;;;;;;5049367;28;20200;-88
2023/05/16 09:37:30;;;;;;;11.50;10.40;;;16.30;87.10;;;;;;5073639;28;20650;-87
2023/05/16 09:39:58;;;;;;;12.27;10.07;;;16.50;78.40;;;;;;5078385;28;20295;-89
2023/05/16 09:42:26;;;;;;;12.25;10.98;;;16.40;81.40;;;;;;5045433;28;20724;-89
2023/05/16 09:44:55;;;;;;;13.23;9.93;;;16.10;83.90;;;;;;5061647;28;20296;-86
2023/05/16 09:47:22;;;;;;;11.48;10.02;;;15.80;84.40;;;;;;5074020;28;20239;-86
2023/05/16 09:49:53;;;;;;;11.65;10.57;;;15.50;89.20;;;;;;5060531;28;20201;-84
2023/05/16 09:52:21;;;;;;;12.60;11.32;;;15.00;88.70;;;;;;5064102;28;20288;-87
2023/05/16 09:54:49;;;;;;;13.20;11.43;;;15.00;90.90;;;;;;5055931;28;20625;-87
2023/05/16 09:57:19;;;;;;;15.55;12.63;;;15.20;91.50;;;;;;5067764;28;20194;-87
2023/05/16 09:59:46;;;;;;;29.20;25.77;;;15.30;90.20;;;;;;5054951;28;20209;-87
2023/05/16 10:02:14;;;;;;;19.08;16.15;;;15.20;90.40;;;;;;5039948;28;20189;-85
2023/05/16 10:04:41;;;;;;;11.40;10.40;;;15.20;90.40;;;;;;5072947;28;20722;-87
2023/05/16 10:07:10;;;;;;;13.25;11.90;;;15.10;90.90;;;;;;5057716;28;20256;-86
2023/05/16 10:09:40;;;;;;;12.65;11.35;;;15.00;90.60;;;;;;5075389;28;20281;-85
2023/05/16 10:12:10;;;;;;;12.85;11.43;;;14.90;91.40;;;;;;5063212;28;20216;-84
2023/05/16 10:14:39;;;;;;;14.32;12.82;;;14.80;90.80;;;;;;5070484;28;20197;-84
2023/05/16 10:17:09;;;;;;;12.30;11.00;;;14.70;91.40;;;;;;5047630;28;20200;-85
2023/05/16 10:19:39;;;;;;;11.73;10.52;;;14.50;91.80;;;;;;5067627;28;20194;-84
2023/05/16 10:22:07;;;;;;;13.77;12.32;;;14.40;92.70;;;;;;5042029;28;20234;-84
2023/05/16 10:24:45;;;;;;;11.88;10.68;;;14.40;93.20;;;;;;5065485;28;20200;-84
2023/05/16 10:27:12;;;;;;;15.57;10.90;;;14.40;93.30;;;;;;5067175;28;20208;-84
2023/05/16 10:29:42;;;;;;;11.88;10.70;;;14.20;93.00;;;;;;5051864;28;20213;-85
2023/05/16 10:32:13;;;;;;;16.48;13.00;;;14.10;93.80;;;;;;5066239;28;20206;-83
2023/05/16 10:35:10;;;;;;;12.75;11.65;;;14.20;94.70;;;;;;5068287;28;20729;-85
2023/05/16 10:37:44;;;;;;;11.77;10.77;;;14.10;94.90;;;;;;5072080;28;20194;-85
2023/05/16 10:40:18;;;;;;;13.30;11.80;;;13.90;95.30;;;;;;5048412;28;20232;-85
2023/05/16 10:42:55;;;;;;;40.85;34.92;;;13.80;95.50;;;;;;5065146;28;20229;-86
2023/05/16 10:45:23;;;;;;;47.42;38.58;;;13.80;96.60;;;;;;5075921;28;20567;-83
2023/05/16 10:48:02;;;;;;;39.05;32.65;;;13.90;96.60;;;;;;5076281;28;20213;-85
2023/05/16 10:50:48;;;;;;;14.20;12.52;;;13.80;96.60;;;;;;5069131;28;20208;-86
2023/05/16 11:16:39;;;;;;;18.38;16.27;;;13.40;99.90;;;;;;5074204;28;20288;-85
2023/05/16 11:19:14;;;;;;;15.63;13.80;;;13.40;99.90;;;;;;5063294;28;20693;-83
2023/05/16 11:22:07;;;;;;;18.58;15.73;;;13.30;99.90;;;;;;5073777;28;20201;-82
2023/05/16 11:28:13;;;;;;;15.10;13.63;;;13.20;99.90;;;;;;5039206;28;20297;-87
2023/05/16 11:31:24;;;;;;;13.57;12.27;;;13.30;99.90;;;;;;5038034;28;20264;-86
2023/05/16 11:34:47;;;;;;;13.45;12.05;;;13.30;99.90;;;;;;5071878;28;20201;-83
2023/05/16 11:40:43;;;;;;;47.70;38.08;;;13.40;99.90;;;;;;4943192;29;20726;-86
2023/05/16 11:43:18;;;;;;;27.60;22.67;;;13.40;99.90;;;;;;5002648;28;20203;-83
2023/05/16 11:45:47;;;;;;;15.07;13.55;;;13.30;99.90;;;;;;5044428;28;20210;-85
2023/05/16 11:48:18;;;;;;;23.55;20.27;;;13.30;99.90;;;;;;5069346;28;20217;-85
2023/05/16 12:00:42;;;;;;;11.93;10.63;;;13.60;99.90;;;;;;4948137;28;20213;-85
2023/05/16 12:10:03;;;;;;;16.15;14.50;;;13.50;99.90;;;;;;4927271;29;20278;-86
2023/05/16 12:12:31;;;;;;;15.02;13.40;;;13.60;99.90;;;;;;5008970;28;20302;-87
2023/05/16 12:15:02;;;;;;;13.23;11.48;;;13.90;99.90;;;;;;5049873;28;20193;-87
2023/05/16 12:17:34;;;;;;;14.43;12.93;;;14.10;99.00;;;;;;5056957;28;20226;-87
2023/05/16 12:20:05;;;;;;;15.38;13.77;;;14.30;98.30;;;;;;5058612;28;20198;-84
2023/05/16 12:22:40;;;;;;;15.20;13.23;;;14.40;98.20;;;;;;5050152;28;20208;-85
2023/05/16 12:25:30;;;;;;;14.13;12.63;;;14.50;97.20;;;;;;5106939;27;20707;-86
2023/05/16 12:27:59;;;;;;;14.43;12.93;;;14.50;97.80;;;;;;5093695;28;20197;-87
2023/05/16 12:30:28;;;;;;;15.80;13.35;;;14.40;97.60;;;;;;5100918;28;20613;-87
2023/05/16 12:32:58;;;;;;;17.85;14.30;;;14.30;98.70;;;;;;5103322;28;20198;-87
2023/05/16 12:35:27;;;;;;;16.20;14.57;;;14.50;98.30;;;;;;5100344;28;20197;-88
2023/05/16 12:37:54;;;;;;;16.75;14.98;;;14.60;97.50;;;;;;5104517;28;20219;-87
2023/05/16 12:40:22;;;;;;;14.85;13.05;;;14.70;97.90;;;;;;5106933;28;20196;-86
2023/05/16 12:42:52;;;;;;;21.67;19.52;;;14.80;97.70;;;;;;5110833;28;20211;-87
2023/05/16 12:45:19;;;;;;;18.60;16.73;;;14.90;97.10;;;;;;5106918;28;20221;-88
2023/05/16 12:47:50;;;;;;;16.77;15.15;;;14.90;97.10;;;;;;5105312;28;20236;-88
2023/05/16 12:50:17;;;;;;;18.92;14.25;;;14.90;96.90;;;;;;5105343;28;20702;-89
2023/05/16 12:52:49;;;;;;;18.75;16.58;;;14.90;97.70;;;;;;5104779;27;20613;-88
2023/05/16 12:55:17;;;;;;;22.42;20.05;;;14.80;97.90;;;;;;5104445;28;20212;-86
2023/05/16 12:57:46;;;;;;;16.45;14.80;;;15.00;97.90;;;;;;5104215;28;20229;-87
2023/05/16 13:00:18;;;;;;;16.48;14.75;;;14.90;98.30;;;;;;5104901;28;20223;-88
2023/05/16 13:02:46;;;;;;;17.33;15.52;;;14.90;97.80;;;;;;5097779;27;20202;-87
2023/05/16 13:05:16;;;;;;;15.73;14.18;;;14.90;96.30;;;;;;5099480;28;20238;-85
2023/05/16 13:07:44;;;;;;;19.45;16.40;;;14.90;96.90;;;;;;5091286;28;20201;-87
2023/05/16 13:10:12;;;;;;;15.93;14.27;;;15.00;96.90;;;;;;5108619;28;20203;-85
2023/05/16 13:12:41;;;;;;;17.60;15.70;;;15.00;96.60;;;;;;5102412;28;21641;-88
2023/05/16 13:15:10;;;;;;;16.20;14.45;;;15.00;96.20;;;;;;5098585;28;20200;-85
2023/05/16 13:17:39;;;;;;;17.02;15.32;;;15.10;96.30;;;;;;5099926;28;20780;-86
2023/05/16 13:20:08;;;;;;;16.27;14.63;;;15.30;96.00;;;;;;5100999;28;20303;-87
2023/05/16 13:22:36;;;;;;;17.08;14.77;;;15.40;96.40;;;;;;5098763;28;20193;-86
2023/05/16 13:25:04;;;;;;;19.48;14.50;;;15.50;96.00;;;;;;5096438;28;20231;-86
2023/05/16 13:27:32;;;;;;;16.15;14.55;;;15.50;95.80;;;;;;5095920;28;20649;-86
2023/05/16 13:29:59;;;;;;;15.70;14.10;;;15.60;95.40;;;;;;5093102;28;20199;-87
2023/05/16 13:32:26;;;;;;;15.63;13.98;;;15.60;95.50;;;;;;5095928;28;20204;-89
2023/05/16 13:35:05;;;;;;;17.80;15.48;;;15.70;95.30;;;;;;5086621;28;20190;-88
2023/05/16 13:37:33;;;;;;;20.23;15.20;;;15.40;96.20;;;;;;5085534;28;20279;-87
2023/05/16 13:40:00;;;;;;;27.88;24.85;;;15.40;96.30;;;;;;5081067;28;20200;-86
2023/05/16 13:42:27;;;;;;;27.38;24.55;;;15.30;96.00;;;;;;5084904;28;20212;-86
2023/05/16 13:44:54;;;;;;;11.85;10.52;;;15.00;96.90;;;;;;5079104;28;20221;-86
2023/05/16 13:47:21;;;;;;;9.88;8.90;;;14.50;93.50;;;;;;5090340;28;20246;-86
2023/05/16 13:49:49;;;;;;;9.20;6.57;;;13.90;94.50;;;;;;5083722;28;20200;-86
2023/05/16 13:52:19;;;;;;;6.15;5.47;;;13.60;95.00;;;;;;5088172;28;20280;-88
2023/05/16 13:54:46;;;;;;;6.80;5.50;;;13.20;96.10;;;;;;5084847;28;20587;-88
2023/05/16 13:57:13;;;;;;;5.82;5.22;;;13.10;97.00;;;;;;5090208;28;20284;-89
2023/05/16 13:59:40;;;;;;;6.70;5.53;;;12.80;96.40;;;;;;5078180;28;20201;-88
2023/05/16 14:02:07;;;;;;;8.27;5.75;;;12.50;96.90;;;;;;5090528;28;20207;-87
2023/05/16 14:04:34;;;;;;;6.22;5.63;;;12.40;98.00;;;;;;5076048;28;20255;-87
2023/05/16 14:07:02;;;;;;;34.75;15.18;;;12.40;98.00;;;;;;5089148;28;20197;-86
2023/05/16 14:09:33;;;;;;;9.38;6.82;;;12.30;99.50;;;;;;5083499;28;20208;-86
2023/05/16 14:12:01;;;;;;;27.77;14.88;;;12.20;99.50;;;;;;5075454;28;20251;-87
2023/05/16 14:14:28;;;;;;;9.52;6.85;;;12.10;99.90;;;;;;5080977;28;20785;-87
2023/05/16 14:16:55;;;;;;;7.43;6.43;;;11.90;99.90;;;;;;5068627;28;20242;-86
2023/05/16 14:19:22;;;;;;;8.18;7.13;;;11.80;99.90;;;;;;5083466;28;20197;-88
2023/05/16 14:21:49;;;;;;;10.63;7.95;;;11.80;99.90;;;;;;5083645;28;20204;-86
2023/05/16 14:24:16;;;;;;;13.60;11.45;;;11.80;99.90;;;;;;5077162;28;20225;-88
2023/05/16 14:26:45;;;;;;;8.38;7.53;;;12.00;99.90;;;;;;5074125;28;20648;-83
2023/05/16 14:29:12;;;;;;;7.68;6.95;;;12.00;99.90;;;;;;5085024;28;20201;-85
2023/05/16 14:31:39;;;;;;;9.40;7.75;;;11.80;99.90;;;;;;5087827;28;20251;-82
2023/05/16 14:34:06;;;;;;;7.90;7.18;;;11.80;99.90;;;;;;5085280;28;20204;-84
2023/05/16 14:36:34;;;;;;;8.80;7.93;;;11.70;99.90;;;;;;5080682;28;20197;-88
2023/05/16 14:39:00;;;;;;;17.85;13.48;;;11.70;99.90;;;;;;5077315;28;20259;-85
2023/05/16 14:41:27;;;;;;;9.88;8.32;;;11.80;99.90;;;;;;5081720;28;20208;-88
2023/05/16 14:43:56;;;;;;;8.82;7.63;;;11.80;99.90;;;;;;5088718;28;21012;-88
2023/05/16 14:46:22;;;;;;;8.75;7.82;;;11.80;99.90;;;;;;5086257;28;20239;-87
2023/05/16 14:48:49;;;;;;;10.15;8.75;;;11.80;99.90;;;;;;5076859;28;20284;-90
2023/05/16 14:51:16;;;;;;;9.18;7.70;;;11.70;99.90;;;;;;5074560;28;20197;-91
2023/05/16 14:53:43;;;;;;;9.20;8.30;;;11.60;99.90;;;;;;5079976;28;20193;-89
2023/05/16 14:56:10;;;;;;;9.93;8.07;;;11.60;99.90;;;;;;5072855;28;20201;-90
2023/05/16 14:58:38;;;;;;;10.57;9.45;;;11.50;99.90;;;;;;5077394;28;20212;-87
2023/05/16 15:01:08;;;;;;;10.85;9.15;;;11.40;99.90;;;;;;5087339;28;20209;-90
2023/05/16 15:03:36;;;;;;;10.45;8.40;;;11.40;99.90;;;;;;5080199;28;20850;-87
2023/05/16 15:06:06;;;;;;;9.75;8.75;;;11.40;99.90;;;;;;5091054;28;20224;-88
2023/05/16 15:08:33;;;;;;;12.43;9.15;;;11.40;99.90;;;;;;5082661;28;20197;-87
2023/05/16 15:11:00;;;;;;;10.68;9.57;;;11.40;99.90;;;;;;5080926;28;20197;-87
2023/05/16 15:13:27;;;;;;;13.70;10.23;;;11.30;99.90;;;;;;5088404;28;20200;-86
2023/05/16 15:15:54;;;;;;;11.98;10.20;;;11.30;99.90;;;;;;5082654;28;20211;-87
2023/05/16 15:18:23;;;;;;;10.25;9.20;;;11.20;99.90;;;;;;5055450;28;20221;-86
2023/05/16 15:20:51;;;;;;;10.20;9.18;;;11.10;99.90;;;;;;5081509;28;20212;-87
2023/05/16 15:23:18;;;;;;;13.05;10.50;;;11.20;99.90;;;;;;5088813;28;20212;-87
2023/05/16 15:25:45;;;;;;;10.30;9.20;;;11.40;99.90;;;;;;5088123;28;20265;-90
2023/05/16 15:28:13;;;;;;;10.45;8.77;;;11.50;99.90;;;;;;5088361;28;20265;-89
2023/05/16 15:30:40;;;;;;;10.52;9.43;;;11.50;99.90;;;;;;5082206;28;20283;-90
2023/05/16 15:33:07;;;;;;;10.70;9.30;;;11.50;99.90;;;;;;5081983;28;20212;-90